sensor_id;sensor_type;location;lat;lon;timestamp;P1;durP1;ratioP1;P2;durP2;ratioP2
44862;SDS011;30597;49.628;10.850;2022-08-26T00:00:32;9.10;;;7.00;;
44862;SDS011;30597;49.628;10.850;2022-08-26T00:02:58;7.20;;;5.83;;
44862;SDS011;30597;49.628;10.850;2022-08-26T00:05:24;7.00;;;6.40;;
44862;SDS011;30597;49.628;10.850;2022-08-26T00:07:50;9.43;;;6.80;;
44862;SDS011;30597;49.628;10.850;2022-08-26T00:10:16;7.60;;;6.20;;
44862;SDS011;30597;49.628;10.850;2022-08-26T00:12:42;7.83;;;6.47;;
44862;SDS011;30597;49.628;10.850;2022-08-26T00:15:08;7.10;;;6.40;;
44862;SDS011;30597;49.628;10.850;2022-08-26T00:17:36;8.40;;;6.97;;
44862;SDS011;30597;49.628;10.850;2022-08-26T00:20:03;7.20;;;6.50;;
44862;SDS011;30597;49.628;10.850;2022-08-26T00:22:30;6.53;;;5.90;;
44862;SDS011;30597;49.628;10.850;2022-08-26T00:24:55;6.70;;;6.10;;
44862;SDS011;30597;49.628;10.850;2022-08-26T00:27:21;7.00;;;6.40;;
44862;SDS011;30597;49.628;10.850;2022-08-26T00:29:46;8.97;;;6.37;;
44862;SDS011;30597;49.628;10.850;2022-08-26T00:32:12;6.60;;;6.00;;
44862;SDS011;30597;49.628;10.850;2022-08-26T00:34:37;9.90;;;6.27;;
44862;SDS011;30597;49.628;10.850;2022-08-26T00:37:03;7.30;;;6.60;;
44862;SDS011;30597;49.628;10.850;2022-08-26T00:39:29;8.00;;;6.60;;
44862;SDS011;30597;49.628;10.850;2022-08-26T00:41:55;7.13;;;6.47;;
44862;SDS011;30597;49.628;10.850;2022-08-26T00:44:21;7.03;;;6.33;;
44862;SDS011;30597;49.628;10.850;2022-08-26T00:46:48;6.40;;;5.80;;
44862;SDS011;30597;49.628;10.850;2022-08-26T00:49:27;7.60;;;6.53;;
44862;SDS011;30597;49.628;10.850;2022-08-26T00:52:07;6.80;;;6.17;;
44862;SDS011;30597;49.628;10.850;2022-08-26T00:54:37;7.57;;;5.90;;
44862;SDS011;30597;49.628;10.850;2022-08-26T00:57:10;6.80;;;6.20;;
44862;SDS011;30597;49.628;10.850;2022-08-26T00:59:38;6.23;;;5.73;;
44862;SDS011;30597;49.628;10.850;2022-08-26T01:02:04;5.70;;;5.20;;
44862;SDS011;30597;49.628;10.850;2022-08-26T01:04:30;6.43;;;5.77;;
44862;SDS011;30597;49.628;10.850;2022-08-26T01:06:58;7.60;;;6.00;;
44862;SDS011;30597;49.628;10.850;2022-08-26T01:09:25;6.27;;;5.40;;
44862;SDS011;30597;49.628;10.850;2022-08-26T01:11:52;6.87;;;6.20;;
44862;SDS011;30597;49.628;10.850;2022-08-26T01:14:20;6.60;;;5.77;;
44862;SDS011;30597;49.628;10.850;2022-08-26T01:16:48;6.47;;;5.87;;
44862;SDS011;30597;49.628;10.850;2022-08-26T01:19:18;6.63;;;6.00;;
44862;SDS011;30597;49.628;10.850;2022-08-26T01:21:55;8.07;;;6.57;;
44862;SDS011;30597;49.628;10.850;2022-08-26T01:24:24;6.40;;;5.80;;
44862;SDS011;30597;49.628;10.850;2022-08-26T01:26:55;6.07;;;5.50;;
44862;SDS011;30597;49.628;10.850;2022-08-26T01:29:25;5.80;;;5.30;;
44862;SDS011;30597;49.628;10.850;2022-08-26T01:31:53;6.97;;;6.37;;
44862;SDS011;30597;49.628;10.850;2022-08-26T01:34:22;8.23;;;5.77;;
44862;SDS011;30597;49.628;10.850;2022-08-26T01:36:57;5.73;;;5.23;;
44862;SDS011;30597;49.628;10.850;2022-08-26T01:39:29;6.50;;;5.77;;
44862;SDS011;30597;49.628;10.850;2022-08-26T01:41:56;6.90;;;6.03;;
44862;SDS011;30597;49.628;10.850;2022-08-26T01:44:25;7.50;;;6.90;;
44862;SDS011;30597;49.628;10.850;2022-08-26T01:46:54;6.50;;;5.90;;
44862;SDS011;30597;49.628;10.850;2022-08-26T01:49:22;6.87;;;6.27;;
44862;SDS011;30597;49.628;10.850;2022-08-26T01:51:49;6.20;;;5.70;;
44862;SDS011;30597;49.628;10.850;2022-08-26T01:54:17;6.13;;;5.53;;
44862;SDS011;30597;49.628;10.850;2022-08-26T01:56:43;6.57;;;5.80;;
44862;SDS011;30597;49.628;10.850;2022-08-26T01:59:10;5.90;;;5.40;;
44862;SDS011;30597;49.628;10.850;2022-08-26T02:01:38;6.33;;;5.73;;
44862;SDS011;30597;49.628;10.850;2022-08-26T02:04:19;6.03;;;5.40;;
44862;SDS011;30597;49.628;10.850;2022-08-26T02:06:45;7.33;;;5.43;;
44862;SDS011;30597;49.628;10.850;2022-08-26T02:09:12;6.00;;;5.40;;
44862;SDS011;30597;49.628;10.850;2022-08-26T02:11:39;5.87;;;5.37;;
44862;SDS011;30597;49.628;10.850;2022-08-26T02:14:09;6.07;;;5.47;;
44862;SDS011;30597;49.628;10.850;2022-08-26T02:16:39;8.00;;;6.67;;
44862;SDS011;30597;49.628;10.850;2022-08-26T02:19:17;7.07;;;6.20;;
44862;SDS011;30597;49.628;10.850;2022-08-26T02:21:46;9.23;;;6.90;;
44862;SDS011;30597;49.628;10.850;2022-08-26T02:24:17;7.57;;;6.87;;
44862;SDS011;30597;49.628;10.850;2022-08-26T02:26:46;7.20;;;6.60;;
44862;SDS011;30597;49.628;10.850;2022-08-26T02:31:56;8.63;;;7.73;;
44862;SDS011;30597;49.628;10.850;2022-08-26T02:34:26;9.60;;;8.30;;
44862;SDS011;30597;49.628;10.850;2022-08-26T02:36:54;10.70;;;8.20;;
44862;SDS011;30597;49.628;10.850;2022-08-26T02:39:21;9.47;;;8.57;;
44862;SDS011;30597;49.628;10.850;2022-08-26T02:41:46;8.77;;;7.27;;
44862;SDS011;30597;49.628;10.850;2022-08-26T02:44:12;9.13;;;8.30;;
44862;SDS011;30597;49.628;10.850;2022-08-26T02:46:38;8.47;;;7.60;;
44862;SDS011;30597;49.628;10.850;2022-08-26T02:49:03;9.37;;;8.57;;
44862;SDS011;30597;49.628;10.850;2022-08-26T02:51:29;8.43;;;7.63;;
44862;SDS011;30597;49.628;10.850;2022-08-26T02:53:55;9.87;;;8.87;;
44862;SDS011;30597;49.628;10.850;2022-08-26T02:56:20;9.30;;;8.50;;
44862;SDS011;30597;49.628;10.850;2022-08-26T02:58:46;10.00;;;8.23;;
44862;SDS011;30597;49.628;10.850;2022-08-26T03:01:23;9.50;;;8.50;;
44862;SDS011;30597;49.628;10.850;2022-08-26T03:03:50;9.50;;;8.60;;
44862;SDS011;30597;49.628;10.850;2022-08-26T03:06:16;9.43;;;8.27;;
44862;SDS011;30597;49.628;10.850;2022-08-26T03:08:43;9.43;;;8.43;;
44862;SDS011;30597;49.628;10.850;2022-08-26T03:11:08;9.67;;;8.67;;
44862;SDS011;30597;49.628;10.850;2022-08-26T03:13:35;10.03;;;9.10;;
44862;SDS011;30597;49.628;10.850;2022-08-26T03:16:01;10.47;;;9.37;;
44862;SDS011;30597;49.628;10.850;2022-08-26T03:18:27;10.27;;;9.30;;
44862;SDS011;30597;49.628;10.850;2022-08-26T03:20:53;9.90;;;8.90;;
44862;SDS011;30597;49.628;10.850;2022-08-26T03:23:19;10.23;;;9.23;;
44862;SDS011;30597;49.628;10.850;2022-08-26T03:25:50;9.77;;;8.77;;
44862;SDS011;30597;49.628;10.850;2022-08-26T03:28:17;10.33;;;9.20;;
44862;SDS011;30597;49.628;10.850;2022-08-26T03:30:42;10.27;;;9.27;;
44862;SDS011;30597;49.628;10.850;2022-08-26T03:33:09;11.00;;;9.90;;
44862;SDS011;30597;49.628;10.850;2022-08-26T03:35:36;10.40;;;9.40;;
44862;SDS011;30597;49.628;10.850;2022-08-26T03:38:04;11.40;;;9.53;;
44862;SDS011;30597;49.628;10.850;2022-08-26T03:40:32;9.80;;;9.00;;
44862;SDS011;30597;49.628;10.850;2022-08-26T03:42:58;11.27;;;10.17;;
44862;SDS011;30597;49.628;10.850;2022-08-26T03:45:25;11.77;;;10.57;;
44862;SDS011;30597;49.628;10.850;2022-08-26T03:47:50;10.73;;;9.73;;
44862;SDS011;30597;49.628;10.850;2022-08-26T03:50:17;10.20;;;9.20;;
44862;SDS011;30597;49.628;10.850;2022-08-26T03:52:44;10.50;;;9.50;;
44862;SDS011;30597;49.628;10.850;2022-08-26T03:55:11;10.93;;;9.90;;
44862;SDS011;30597;49.628;10.850;2022-08-26T03:57:37;11.23;;;9.80;;
44862;SDS011;30597;49.628;10.850;2022-08-26T04:00:04;10.83;;;9.93;;
44862;SDS011;30597;49.628;10.850;2022-08-26T04:02:37;10.80;;;9.70;;
44862;SDS011;30597;49.628;10.850;2022-08-26T04:05:03;11.33;;;10.30;;
44862;SDS011;30597;49.628;10.850;2022-08-26T04:07:28;10.77;;;9.67;;
44862;SDS011;30597;49.628;10.850;2022-08-26T04:09:55;11.20;;;10.20;;
44862;SDS011;30597;49.628;10.850;2022-08-26T04:12:21;10.53;;;9.43;;
44862;SDS011;30597;49.628;10.850;2022-08-26T04:14:47;12.27;;;11.03;;
44862;SDS011;30597;49.628;10.850;2022-08-26T04:17:13;11.17;;;10.17;;
44862;SDS011;30597;49.628;10.850;2022-08-26T04:19:39;11.30;;;10.20;;
44862;SDS011;30597;49.628;10.850;2022-08-26T04:22:05;11.30;;;10.27;;
44862;SDS011;30597;49.628;10.850;2022-08-26T04:24:32;11.00;;;10.00;;
44862;SDS011;30597;49.628;10.850;2022-08-26T04:26:58;11.33;;;10.23;;
44862;SDS011;30597;49.628;10.850;2022-08-26T04:29:27;12.17;;;10.90;;
44862;SDS011;30597;49.628;10.850;2022-08-26T04:31:53;10.60;;;9.53;;
44862;SDS011;30597;49.628;10.850;2022-08-26T04:34:20;10.60;;;9.50;;
44862;SDS011;30597;49.628;10.850;2022-08-26T04:36:46;11.47;;;10.27;;
44862;SDS011;30597;49.628;10.850;2022-08-26T04:39:12;12.00;;;10.80;;
44862;SDS011;30597;49.628;10.850;2022-08-26T04:41:42;12.20;;;11.00;;
44862;SDS011;30597;49.628;10.850;2022-08-26T04:44:08;11.50;;;10.30;;
44862;SDS011;30597;49.628;10.850;2022-08-26T04:46:34;12.60;;;10.83;;
44862;SDS011;30597;49.628;10.850;2022-08-26T04:49:00;12.40;;;11.10;;
44862;SDS011;30597;49.628;10.850;2022-08-26T04:51:26;17.13;;;14.73;;
44862;SDS011;30597;49.628;10.850;2022-08-26T04:53:55;17.67;;;14.63;;
44862;SDS011;30597;49.628;10.850;2022-08-26T04:56:26;18.80;;;14.60;;
44862;SDS011;30597;49.628;10.850;2022-08-26T04:58:56;20.43;;;18.37;;
44862;SDS011;30597;49.628;10.850;2022-08-26T05:01:22;20.00;;;17.90;;
44862;SDS011;30597;49.628;10.850;2022-08-26T05:03:48;19.10;;;17.20;;
44862;SDS011;30597;49.628;10.850;2022-08-26T05:06:14;24.10;;;17.70;;
44862;SDS011;30597;49.628;10.850;2022-08-26T05:08:40;17.33;;;15.63;;
44862;SDS011;30597;49.628;10.850;2022-08-26T05:11:06;17.20;;;15.40;;
44862;SDS011;30597;49.628;10.850;2022-08-26T05:13:32;17.50;;;14.57;;
44862;SDS011;30597;49.628;10.850;2022-08-26T05:16:02;17.10;;;14.30;;
44862;SDS011;30597;49.628;10.850;2022-08-26T05:18:29;15.50;;;14.00;;
44862;SDS011;30597;49.628;10.850;2022-08-26T05:20:55;16.30;;;14.30;;
44862;SDS011;30597;49.628;10.850;2022-08-26T05:23:21;17.53;;;14.57;;
44862;SDS011;30597;49.628;10.850;2022-08-26T05:25:48;21.67;;;14.97;;
44862;SDS011;30597;49.628;10.850;2022-08-26T05:28:16;18.13;;;12.00;;
44862;SDS011;30597;49.628;10.850;2022-08-26T05:30:43;16.23;;;13.00;;
44862;SDS011;30597;49.628;10.850;2022-08-26T05:33:09;17.83;;;14.00;;
44862;SDS011;30597;49.628;10.850;2022-08-26T05:35:36;15.83;;;14.17;;
44862;SDS011;30597;49.628;10.850;2022-08-26T05:38:03;15.53;;;12.70;;
44862;SDS011;30597;49.628;10.850;2022-08-26T05:40:34;15.73;;;13.67;;
44862;SDS011;30597;49.628;10.850;2022-08-26T05:43:01;15.70;;;13.17;;
44862;SDS011;30597;49.628;10.850;2022-08-26T05:45:28;16.10;;;14.50;;
44862;SDS011;30597;49.628;10.850;2022-08-26T05:47:56;15.33;;;13.73;;
44862;SDS011;30597;49.628;10.850;2022-08-26T05:50:21;18.87;;;14.03;;
44862;SDS011;30597;49.628;10.850;2022-08-26T05:52:49;15.97;;;14.37;;
44862;SDS011;30597;49.628;10.850;2022-08-26T05:55:15;15.30;;;13.77;;
44862;SDS011;30597;49.628;10.850;2022-08-26T05:57:42;18.33;;;14.93;;
44862;SDS011;30597;49.628;10.850;2022-08-26T06:00:08;15.63;;;14.10;;
44862;SDS011;30597;49.628;10.850;2022-08-26T06:02:35;15.23;;;13.70;;
44862;SDS011;30597;49.628;10.850;2022-08-26T06:05:01;14.10;;;12.73;;
44862;SDS011;30597;49.628;10.850;2022-08-26T06:07:26;18.17;;;13.37;;
44862;SDS011;30597;49.628;10.850;2022-08-26T06:10:13;16.10;;;14.47;;
44862;SDS011;30597;49.628;10.850;2022-08-26T06:12:39;15.47;;;14.07;;
44862;SDS011;30597;49.628;10.850;2022-08-26T06:15:05;15.87;;;13.87;;
44862;SDS011;30597;49.628;10.850;2022-08-26T06:17:31;18.30;;;13.10;;
44862;SDS011;30597;49.628;10.850;2022-08-26T06:19:56;16.13;;;14.53;;
44862;SDS011;30597;49.628;10.850;2022-08-26T06:22:22;15.43;;;13.70;;
44862;SDS011;30597;49.628;10.850;2022-08-26T06:25:07;19.63;;;13.00;;
44862;SDS011;30597;49.628;10.850;2022-08-26T06:27:52;14.70;;;13.13;;
44862;SDS011;30597;49.628;10.850;2022-08-26T06:30:18;14.87;;;13.37;;
44862;SDS011;30597;49.628;10.850;2022-08-26T06:32:43;16.40;;;13.63;;
44862;SDS011;30597;49.628;10.850;2022-08-26T06:35:09;13.73;;;12.33;;
44862;SDS011;30597;49.628;10.850;2022-08-26T06:37:35;15.03;;;13.10;;
44862;SDS011;30597;49.628;10.850;2022-08-26T06:40:00;14.57;;;12.93;;
44862;SDS011;30597;49.628;10.850;2022-08-26T06:42:26;13.83;;;12.50;;
44862;SDS011;30597;49.628;10.850;2022-08-26T06:44:51;13.97;;;12.57;;
44862;SDS011;30597;49.628;10.850;2022-08-26T06:47:17;15.30;;;12.90;;
44862;SDS011;30597;49.628;10.850;2022-08-26T06:49:42;13.93;;;12.00;;
44862;SDS011;30597;49.628;10.850;2022-08-26T06:52:08;13.13;;;11.80;;
44862;SDS011;30597;49.628;10.850;2022-08-26T06:54:33;16.90;;;13.50;;
44862;SDS011;30597;49.628;10.850;2022-08-26T06:57:00;15.60;;;11.90;;
44862;SDS011;30597;49.628;10.850;2022-08-26T06:59:26;13.70;;;12.30;;
44862;SDS011;30597;49.628;10.850;2022-08-26T07:01:52;14.23;;;12.10;;
44862;SDS011;30597;49.628;10.850;2022-08-26T07:04:18;13.10;;;11.80;;
44862;SDS011;30597;49.628;10.850;2022-08-26T07:06:44;15.50;;;12.97;;
44862;SDS011;30597;49.628;10.850;2022-08-26T07:09:12;13.43;;;12.03;;
44862;SDS011;30597;49.628;10.850;2022-08-26T07:11:38;12.73;;;11.47;;
44862;SDS011;30597;49.628;10.850;2022-08-26T07:14:05;12.63;;;11.43;;
44862;SDS011;30597;49.628;10.850;2022-08-26T07:16:31;14.23;;;12.67;;
44862;SDS011;30597;49.628;10.850;2022-08-26T07:18:57;15.00;;;10.73;;
44862;SDS011;30597;49.628;10.850;2022-08-26T07:21:22;14.30;;;11.53;;
44862;SDS011;30597;49.628;10.850;2022-08-26T07:23:49;12.30;;;11.00;;
44862;SDS011;30597;49.628;10.850;2022-08-26T07:26:16;12.70;;;11.40;;
44862;SDS011;30597;49.628;10.850;2022-08-26T07:28:48;14.33;;;12.03;;
44862;SDS011;30597;49.628;10.850;2022-08-26T07:31:16;13.83;;;11.80;;
44862;SDS011;30597;49.628;10.850;2022-08-26T07:33:43;15.30;;;11.90;;
44862;SDS011;30597;49.628;10.850;2022-08-26T07:36:09;12.93;;;11.63;;
44862;SDS011;30597;49.628;10.850;2022-08-26T07:38:36;13.70;;;11.17;;
44862;SDS011;30597;49.628;10.850;2022-08-26T07:41:03;16.53;;;11.90;;
44862;SDS011;30597;49.628;10.850;2022-08-26T07:43:29;15.83;;;11.90;;
44862;SDS011;30597;49.628;10.850;2022-08-26T07:45:56;16.23;;;12.90;;
44862;SDS011;30597;49.628;10.850;2022-08-26T07:48:21;13.70;;;11.67;;
44862;SDS011;30597;49.628;10.850;2022-08-26T07:50:47;12.27;;;10.70;;
44862;SDS011;30597;49.628;10.850;2022-08-26T07:53:13;12.53;;;11.23;;
44862;SDS011;30597;49.628;10.850;2022-08-26T07:55:39;14.17;;;12.77;;
44862;SDS011;30597;49.628;10.850;2022-08-26T07:58:05;13.53;;;11.70;;
44862;SDS011;30597;49.628;10.850;2022-08-26T08:00:30;13.30;;;11.80;;
44862;SDS011;30597;49.628;10.850;2022-08-26T08:02:57;12.53;;;11.23;;
44862;SDS011;30597;49.628;10.850;2022-08-26T08:05:28;11.93;;;10.70;;
44862;SDS011;30597;49.628;10.850;2022-08-26T08:07:59;12.60;;;11.30;;
44862;SDS011;30597;49.628;10.850;2022-08-26T08:10:27;12.33;;;10.40;;
44862;SDS011;30597;49.628;10.850;2022-08-26T08:12:53;11.77;;;10.77;;
44862;SDS011;30597;49.628;10.850;2022-08-26T08:15:21;12.60;;;11.40;;
44862;SDS011;30597;49.628;10.850;2022-08-26T08:17:50;12.17;;;10.97;;
44862;SDS011;30597;49.628;10.850;2022-08-26T08:20:16;16.30;;;10.73;;
44862;SDS011;30597;49.628;10.850;2022-08-26T08:22:42;11.10;;;10.00;;
44862;SDS011;30597;49.628;10.850;2022-08-26T08:25:08;12.37;;;10.70;;
44862;SDS011;30597;49.628;10.850;2022-08-26T08:27:34;11.00;;;9.90;;
44862;SDS011;30597;49.628;10.850;2022-08-26T08:30:01;11.43;;;10.30;;
44862;SDS011;30597;49.628;10.850;2022-08-26T08:32:28;12.40;;;11.00;;
44862;SDS011;30597;49.628;10.850;2022-08-26T08:34:54;11.63;;;10.43;;
44862;SDS011;30597;49.628;10.850;2022-08-26T08:37:21;13.80;;;11.00;;
44862;SDS011;30597;49.628;10.850;2022-08-26T08:39:47;13.50;;;11.30;;
44862;SDS011;30597;49.628;10.850;2022-08-26T08:42:22;12.77;;;11.33;;
44862;SDS011;30597;49.628;10.850;2022-08-26T08:45:03;14.10;;;10.93;;
44862;SDS011;30597;49.628;10.850;2022-08-26T08:47:45;11.40;;;10.20;;
44862;SDS011;30597;49.628;10.850;2022-08-26T08:50:22;11.50;;;10.50;;
44862;SDS011;30597;49.628;10.850;2022-08-26T08:53:09;12.20;;;10.63;;
44862;SDS011;30597;49.628;10.850;2022-08-26T08:55:48;10.47;;;9.47;;
44862;SDS011;30597;49.628;10.850;2022-08-26T08:58:46;13.47;;;11.73;;
44862;SDS011;30597;49.628;10.850;2022-08-26T09:06:23;14.93;;;11.20;;
44862;SDS011;30597;49.628;10.850;2022-08-26T09:08:49;12.70;;;11.20;;
44862;SDS011;30597;49.628;10.850;2022-08-26T09:11:15;12.47;;;11.23;;
44862;SDS011;30597;49.628;10.850;2022-08-26T09:13:43;12.13;;;10.93;;
44862;SDS011;30597;49.628;10.850;2022-08-26T09:16:26;11.77;;;10.43;;
44862;SDS011;30597;49.628;10.850;2022-08-26T09:19:16;10.67;;;9.57;;
44862;SDS011;30597;49.628;10.850;2022-08-26T09:21:58;14.90;;;11.83;;
44862;SDS011;30597;49.628;10.850;2022-08-26T09:24:25;12.00;;;9.47;;
44862;SDS011;30597;49.628;10.850;2022-08-26T09:26:53;11.00;;;9.90;;
44862;SDS011;30597;49.628;10.850;2022-08-26T09:34:58;11.90;;;9.70;;
44862;SDS011;30597;49.628;10.850;2022-08-26T09:42:37;11.43;;;10.00;;
44862;SDS011;30597;49.628;10.850;2022-08-26T09:45:04;11.60;;;10.40;;
44862;SDS011;30597;49.628;10.850;2022-08-26T09:47:50;13.00;;;11.67;;
44862;SDS011;30597;49.628;10.850;2022-08-26T09:55:39;14.33;;;9.93;;
44862;SDS011;30597;49.628;10.850;2022-08-26T09:58:06;12.10;;;10.53;;
44862;SDS011;30597;49.628;10.850;2022-08-26T10:00:38;12.10;;;9.80;;
44862;SDS011;30597;49.628;10.850;2022-08-26T10:03:07;14.40;;;11.83;;
44862;SDS011;30597;49.628;10.850;2022-08-26T10:05:40;11.70;;;10.63;;
44862;SDS011;30597;49.628;10.850;2022-08-26T10:08:29;12.97;;;10.60;;
44862;SDS011;30597;49.628;10.850;2022-08-26T10:10:57;13.80;;;10.90;;
44862;SDS011;30597;49.628;10.850;2022-08-26T10:13:26;11.03;;;9.87;;
44862;SDS011;30597;49.628;10.850;2022-08-26T10:16:13;20.30;;;11.53;;
44862;SDS011;30597;49.628;10.850;2022-08-26T10:21:29;12.67;;;11.50;;
44862;SDS011;30597;49.628;10.850;2022-08-26T10:24:09;11.50;;;10.07;;
44862;SDS011;30597;49.628;10.850;2022-08-26T10:27:00;11.50;;;10.30;;
44862;SDS011;30597;49.628;10.850;2022-08-26T10:29:56;12.13;;;11.03;;
44862;SDS011;30597;49.628;10.850;2022-08-26T10:32:32;13.20;;;10.37;;
44862;SDS011;30597;49.628;10.850;2022-08-26T10:35:01;12.20;;;10.97;;
44862;SDS011;30597;49.628;10.850;2022-08-26T10:37:41;15.07;;;10.70;;
44862;SDS011;30597;49.628;10.850;2022-08-26T10:40:24;15.53;;;11.33;;
44862;SDS011;30597;49.628;10.850;2022-08-26T10:43:14;14.97;;;10.33;;
44862;SDS011;30597;49.628;10.850;2022-08-26T10:45:51;13.30;;;10.20;;
44862;SDS011;30597;49.628;10.850;2022-08-26T10:48:34;13.93;;;11.30;;
44862;SDS011;30597;49.628;10.850;2022-08-26T10:52:04;13.33;;;9.93;;
44862;SDS011;30597;49.628;10.850;2022-08-26T10:54:13;12.70;;;9.87;;
44862;SDS011;30597;49.628;10.850;2022-08-26T10:56:45;14.00;;;11.13;;
44862;SDS011;30597;49.628;10.850;2022-08-26T10:59:33;14.47;;;11.70;;
44862;SDS011;30597;49.628;10.850;2022-08-26T11:07:30;19.03;;;10.43;;
44862;SDS011;30597;49.628;10.850;2022-08-26T11:15:13;11.87;;;10.77;;
44862;SDS011;30597;49.628;10.850;2022-08-26T11:18:03;16.17;;;10.90;;
44862;SDS011;30597;49.628;10.850;2022-08-26T11:20:42;12.87;;;9.27;;
44862;SDS011;30597;49.628;10.850;2022-08-26T11:31:00;17.03;;;9.73;;
44862;SDS011;30597;49.628;10.850;2022-08-26T11:41:49;13.30;;;9.17;;
44862;SDS011;30597;49.628;10.850;2022-08-26T11:44:18;17.70;;;9.60;;
44862;SDS011;30597;49.628;10.850;2022-08-26T11:46:56;13.10;;;10.60;;
44862;SDS011;30597;49.628;10.850;2022-08-26T11:49:23;13.17;;;10.13;;
44862;SDS011;30597;49.628;10.850;2022-08-26T11:51:50;16.33;;;10.40;;
44862;SDS011;30597;49.628;10.850;2022-08-26T11:54:17;13.97;;;9.70;;
44862;SDS011;30597;49.628;10.850;2022-08-26T11:56:45;15.07;;;9.90;;
44862;SDS011;30597;49.628;10.850;2022-08-26T11:59:16;11.50;;;8.93;;
44862;SDS011;30597;49.628;10.850;2022-08-26T12:01:51;12.47;;;10.00;;
44862;SDS011;30597;49.628;10.850;2022-08-26T12:04:36;12.40;;;9.33;;
44862;SDS011;30597;49.628;10.850;2022-08-26T12:07:06;13.80;;;9.10;;
44862;SDS011;30597;49.628;10.850;2022-08-26T12:09:34;10.30;;;9.00;;
44862;SDS011;30597;49.628;10.850;2022-08-26T12:14:47;11.47;;;8.97;;
44862;SDS011;30597;49.628;10.850;2022-08-26T12:17:15;10.47;;;9.10;;
44862;SDS011;30597;49.628;10.850;2022-08-26T12:19:42;11.00;;;9.30;;
44862;SDS011;30597;49.628;10.850;2022-08-26T12:22:30;10.20;;;8.90;;
44862;SDS011;30597;49.628;10.850;2022-08-26T12:25:03;11.77;;;8.17;;
44862;SDS011;30597;49.628;10.850;2022-08-26T12:27:32;14.00;;;8.50;;
44862;SDS011;30597;49.628;10.850;2022-08-26T12:32:41;15.03;;;9.47;;
44862;SDS011;30597;49.628;10.850;2022-08-26T12:35:11;11.43;;;8.17;;
44862;SDS011;30597;49.628;10.850;2022-08-26T12:37:39;9.83;;;8.20;;
44862;SDS011;30597;49.628;10.850;2022-08-26T12:42:59;13.23;;;8.77;;
44862;SDS011;30597;49.628;10.850;2022-08-26T12:45:31;11.00;;;8.90;;
44862;SDS011;30597;49.628;10.850;2022-08-26T12:48:09;12.37;;;8.00;;
44862;SDS011;30597;49.628;10.850;2022-08-26T12:50:46;12.03;;;7.87;;
44862;SDS011;30597;49.628;10.850;2022-08-26T12:53:16;8.93;;;8.03;;
44862;SDS011;30597;49.628;10.850;2022-08-26T12:55:53;12.43;;;8.20;;
44862;SDS011;30597;49.628;10.850;2022-08-26T12:58:29;13.50;;;8.20;;
44862;SDS011;30597;49.628;10.850;2022-08-26T13:08:55;11.70;;;8.47;;
44862;SDS011;30597;49.628;10.850;2022-08-26T13:11:30;10.67;;;7.70;;
44862;SDS011;30597;49.628;10.850;2022-08-26T13:14:19;16.97;;;8.77;;
44862;SDS011;30597;49.628;10.850;2022-08-26T13:16:46;18.20;;;9.43;;
44862;SDS011;30597;49.628;10.850;2022-08-26T13:19:23;10.90;;;8.30;;
44862;SDS011;30597;49.628;10.850;2022-08-26T13:21:54;13.70;;;7.40;;
44862;SDS011;30597;49.628;10.850;2022-08-26T13:24:24;13.17;;;8.57;;
44862;SDS011;30597;49.628;10.850;2022-08-26T13:27:02;13.23;;;8.90;;
44862;SDS011;30597;49.628;10.850;2022-08-26T13:29:29;14.80;;;8.37;;
44862;SDS011;30597;49.628;10.850;2022-08-26T13:31:55;10.83;;;7.90;;
44862;SDS011;30597;49.628;10.850;2022-08-26T13:34:22;26.80;;;9.60;;
44862;SDS011;30597;49.628;10.850;2022-08-26T13:36:48;11.10;;;8.37;;
44862;SDS011;30597;49.628;10.850;2022-08-26T13:39:16;15.60;;;8.00;;
44862;SDS011;30597;49.628;10.850;2022-08-26T13:41:42;14.33;;;8.50;;
44862;SDS011;30597;49.628;10.850;2022-08-26T13:44:08;14.63;;;8.80;;
44862;SDS011;30597;49.628;10.850;2022-08-26T13:46:34;10.90;;;8.97;;
44862;SDS011;30597;49.628;10.850;2022-08-26T13:49:00;11.73;;;8.37;;
44862;SDS011;30597;49.628;10.850;2022-08-26T13:51:26;9.77;;;7.87;;
44862;SDS011;30597;49.628;10.850;2022-08-26T13:53:53;12.60;;;8.33;;
44862;SDS011;30597;49.628;10.850;2022-08-26T13:56:18;15.33;;;8.53;;
44862;SDS011;30597;49.628;10.850;2022-08-26T13:58:45;10.40;;;8.43;;
44862;SDS011;30597;49.628;10.850;2022-08-26T14:01:11;13.03;;;7.70;;
44862;SDS011;30597;49.628;10.850;2022-08-26T14:03:37;11.83;;;8.07;;
44862;SDS011;30597;49.628;10.850;2022-08-26T14:06:02;10.33;;;8.37;;
44862;SDS011;30597;49.628;10.850;2022-08-26T14:08:28;13.27;;;8.60;;
44862;SDS011;30597;49.628;10.850;2022-08-26T14:10:55;14.60;;;9.23;;
44862;SDS011;30597;49.628;10.850;2022-08-26T14:13:21;14.77;;;8.70;;
44862;SDS011;30597;49.628;10.850;2022-08-26T14:15:46;12.63;;;9.27;;
44862;SDS011;30597;49.628;10.850;2022-08-26T14:18:12;15.97;;;9.00;;
44862;SDS011;30597;49.628;10.850;2022-08-26T14:20:44;15.13;;;10.43;;
44862;SDS011;30597;49.628;10.850;2022-08-26T14:23:13;13.20;;;7.90;;
44862;SDS011;30597;49.628;10.850;2022-08-26T14:25:39;13.80;;;8.10;;
44862;SDS011;30597;49.628;10.850;2022-08-26T14:28:05;17.07;;;10.13;;
44862;SDS011;30597;49.628;10.850;2022-08-26T14:30:31;11.63;;;10.20;;
44862;SDS011;30597;49.628;10.850;2022-08-26T14:32:57;12.30;;;9.00;;
44862;SDS011;30597;49.628;10.850;2022-08-26T14:35:26;14.60;;;8.83;;
44862;SDS011;30597;49.628;10.850;2022-08-26T14:37:53;12.53;;;8.60;;
44862;SDS011;30597;49.628;10.850;2022-08-26T14:40:21;14.67;;;9.33;;
44862;SDS011;30597;49.628;10.850;2022-08-26T14:42:54;15.40;;;8.23;;
44862;SDS011;30597;49.628;10.850;2022-08-26T14:45:22;14.20;;;9.23;;
44862;SDS011;30597;49.628;10.850;2022-08-26T14:47:49;13.13;;;8.87;;
44862;SDS011;30597;49.628;10.850;2022-08-26T14:50:17;13.93;;;9.90;;
44862;SDS011;30597;49.628;10.850;2022-08-26T14:52:46;14.60;;;8.50;;
44862;SDS011;30597;49.628;10.850;2022-08-26T14:55:31;12.50;;;8.00;;
44862;SDS011;30597;49.628;10.850;2022-08-26T14:57:59;11.10;;;6.33;;
44862;SDS011;30597;49.628;10.850;2022-08-26T15:00:25;13.10;;;5.37;;
44862;SDS011;30597;49.628;10.850;2022-08-26T15:02:51;7.50;;;4.07;;
44862;SDS011;30597;49.628;10.850;2022-08-26T15:05:17;7.60;;;3.63;;
44862;SDS011;30597;49.628;10.850;2022-08-26T15:07:43;7.23;;;4.57;;
44862;SDS011;30597;49.628;10.850;2022-08-26T15:10:09;8.23;;;5.00;;
44862;SDS011;30597;49.628;10.850;2022-08-26T15:12:37;7.70;;;4.90;;
44862;SDS011;30597;49.628;10.850;2022-08-26T15:15:04;8.80;;;4.63;;
44862;SDS011;30597;49.628;10.850;2022-08-26T15:17:32;7.47;;;4.83;;
44862;SDS011;30597;49.628;10.850;2022-08-26T15:19:58;11.97;;;5.03;;
44862;SDS011;30597;49.628;10.850;2022-08-26T15:22:24;11.47;;;5.50;;
44862;SDS011;30597;49.628;10.850;2022-08-26T15:24:50;9.70;;;5.47;;
44862;SDS011;30597;49.628;10.850;2022-08-26T15:27:16;7.90;;;5.97;;
44862;SDS011;30597;49.628;10.850;2022-08-26T15:29:42;11.17;;;6.33;;
44862;SDS011;30597;49.628;10.850;2022-08-26T15:32:08;10.83;;;6.10;;
44862;SDS011;30597;49.628;10.850;2022-08-26T15:34:34;14.27;;;6.40;;
44862;SDS011;30597;49.628;10.850;2022-08-26T15:37:00;14.10;;;7.50;;
44862;SDS011;30597;49.628;10.850;2022-08-26T15:39:26;28.53;;;19.70;;